Time,TemperatureF,DewpointF,PressureIn,WindDirection,WindDirectionDegrees,WindSpeedMPH,WindSpeedGustMPH,Humidity,HourlyPrecipIn,Conditions,Clouds,dailyrainin,SoftwareType,DateUTC
2013-02-07 00:00:00,48.4,45.3,30.24,ENE,76,7.0,13.0,89,0.00,,---,0.00,VWS V14.01,2013-02-07 05:00:00,
2013-02-07 00:05:00,48.3,45.2,30.23,East,99,13.0,13.0,89,0.00,,---,0.00,VWS V14.01,2013-02-07 05:05:00,
2013-02-07 00:10:00,48.3,45.2,30.23,East,89,8.0,14.0,89,0.00,,---,0.00,VWS V14.01,2013-02-07 05:10:00,
2013-02-07 00:15:00,48.3,45.2,30.24,East,81,9.0,14.0,89,0.00,,---,0.00,VWS V14.01,2013-02-07 05:15:00,
2013-02-07 00:20:00,48.5,45.7,30.25,ENE,66,6.0,14.0,90,0.00,,---,0.00,VWS V14.01,2013-02-07 05:20:00,
2013-02-07 00:26:00,48.6,45.8,30.26,ENE,69,7.0,14.0,90,0.00,,---,0.00,VWS V14.01,2013-02-07 05:26:00,
2013-02-07 00:31:00,48.5,45.7,30.25,East,89,7.0,13.0,90,0.00,,---,0.00,VWS V14.01,2013-02-07 05:31:00,
2013-02-07 00:36:00,48.5,45.7,30.25,ENE,69,8.0,13.0,90,0.00,,---,0.00,VWS V14.01,2013-02-07 05:36:00,
2013-02-07 00:41:00,48.3,45.5,30.25,East,88,7.0,13.0,90,0.00,,---,0.00,VWS V14.01,2013-02-07 05:41:00,
2013-02-07 00:46:00,48.2,45.4,30.24,ESE,105,11.0,15.0,90,0.00,,---,0.00,VWS V14.01,2013-02-07 05:46:00,
2013-02-07 00:51:00,48.2,45.4,30.24,ENE,72,11.0,15.0,90,0.00,,---,0.00,VWS V14.01,2013-02-07 05:51:00,
2013-02-07 00:56:00,48.1,45.3,30.24,ENE,63,8.0,15.0,90,0.00,,---,0.00,VWS V14.01,2013-02-07 05:56:00,
2013-02-07 01:01:00,47.9,45.1,30.24,NE,55,9.0,11.0,90,0.00,,---,0.00,VWS V14.01,2013-02-07 06:01:00,
2013-02-07 01:06:00,47.8,45.0,30.24,ENE,66,11.0,12.0,90,0.00,,---,0.00,VWS V14.01,2013-02-07 06:06:00,
2013-02-07 01:11:00,47.5,44.7,30.23,ENE,69,12.0,13.0,90,0.00,,---,0.00,VWS V14.01,2013-02-07 06:11:00,
2013-02-07 01:16:00,47.3,44.5,30.23,East,90,10.0,14.0,90,0.00,,---,0.00,VWS V14.01,2013-02-07 06:16:00,
2013-02-07 01:21:00,47.2,44.4,30.22,ENE,67,9.0,15.0,90,0.00,,---,0.00,VWS V14.01,2013-02-07 06:21:00,
2013-02-07 01:27:00,47.2,44.4,30.22,ENE,71,6.0,15.0,90,0.00,,---,0.00,VWS V14.01,2013-02-07 06:27:00,
2013-02-07 01:32:00,47.1,44.3,30.22,East,84,9.0,14.0,90,0.00,,---,0.00,VWS V14.01,2013-02-07 06:32:00,
2013-02-07 01:37:00,47.1,44.6,30.22,East,84,13.0,14.0,91,0.00,,---,0.00,VWS V14.01,2013-02-07 06:37:00,
2013-02-07 01:42:00,47.1,44.6,30.22,ENE,78,10.0,14.0,91,0.00,,---,0.00,VWS V14.01,2013-02-07 06:42:00,
2013-02-07 01:47:00,47.2,44.7,30.21,ENE,71,11.0,16.0,91,0.00,,---,0.00,VWS V14.01,2013-02-07 06:47:00,
2013-02-07 01:52:00,47.2,44.7,30.21,ENE,75,9.0,16.0,91,0.00,,---,0.00,VWS V14.01,2013-02-07 06:52:00,
2013-02-07 01:57:00,47.2,44.7,30.21,ENE,70,13.0,16.0,91,0.00,,---,0.00,VWS V14.01,2013-02-07 06:57:00,
2013-02-07 02:02:00,47.2,44.7,30.21,East,79,13.0,13.0,91,0.00,,---,0.00,VWS V14.01,2013-02-07 07:02:00,
2013-02-07 02:07:00,47.3,44.8,30.22,NE,53,10.0,13.0,91,0.00,,---,0.00,VWS V14.01,2013-02-07 07:07:00,
2013-02-07 02:12:00,47.3,44.8,30.22,ENE,74,9.0,14.0,91,0.00,,---,0.00,VWS V14.01,2013-02-07 07:12:00,
2013-02-07 02:17:00,47.3,44.8,30.22,East,86,10.0,14.0,91,0.00,,---,0.00,VWS V14.01,2013-02-07 07:17:00,
2013-02-07 02:22:00,47.3,44.8,30.21,ENE,69,13.0,16.0,91,0.00,,---,0.00,VWS V14.01,2013-02-07 07:22:00,
2013-02-07 02:27:00,47.3,44.8,30.22,East,88,12.0,16.0,91,0.00,,---,0.00,VWS V14.01,2013-02-07 07:27:00,
2013-02-07 02:32:00,47.4,44.9,30.22,ENE,65,12.0,14.0,91,0.00,,---,0.00,VWS V14.01,2013-02-07 07:32:00,
2013-02-07 02:37:00,47.4,44.9,30.22,ENE,71,8.0,14.0,91,0.00,,---,0.00,VWS V14.01,2013-02-07 07:37:00,
2013-02-07 02:42:00,47.5,45.0,30.22,East,94,12.0,15.0,91,0.00,,---,0.00,VWS V14.01,2013-02-07 07:42:00,
2013-02-07 02:47:00,47.5,45.0,30.22,ENE,74,9.0,15.0,91,0.00,,---,0.00,VWS V14.01,2013-02-07 07:47:00,
2013-02-07 02:53:00,47.6,45.1,30.22,ENE,76,9.0,15.0,91,0.00,,---,0.00,VWS V14.01,2013-02-07 07:53:00,
2013-02-07 02:58:00,47.8,45.3,30.22,ENE,59,5.0,15.0,91,0.00,,---,0.00,VWS V14.01,2013-02-07 07:58:00,
2013-02-07 03:03:00,48.0,45.5,30.22,ENE,77,6.0,14.0,91,0.00,,---,0.00,VWS V14.01,2013-02-07 08:03:00,
2013-02-07 03:08:00,48.1,45.6,30.22,ENE,71,10.0,15.0,91,0.00,,---,0.00,VWS V14.01,2013-02-07 08:08:00,
2013-02-07 03:13:00,48.1,45.6,30.21,East,82,11.0,15.0,91,0.00,,---,0.00,VWS V14.01,2013-02-07 08:13:00,
2013-02-07 03:18:00,48.1,45.9,30.22,ENE,73,10.0,15.0,92,0.00,,---,0.00,VWS V14.01,2013-02-07 08:18:00,
2013-02-07 03:23:00,48.0,45.5,30.22,ENE,59,10.0,15.0,91,0.00,,---,0.00,VWS V14.01,2013-02-07 08:23:00,
2013-02-07 03:28:00,47.9,45.7,30.21,ENE,69,11.0,11.0,92,0.00,,---,0.00,VWS V14.01,2013-02-07 08:28:00,
2013-02-07 03:33:00,47.9,45.7,30.21,NE,49,10.0,13.0,92,0.00,,---,0.00,VWS V14.01,2013-02-07 08:33:00,
2013-02-07 03:38:00,47.8,45.6,30.21,ENE,75,9.0,15.0,92,0.00,,---,0.00,VWS V14.01,2013-02-07 08:38:00,
2013-02-07 03:43:00,47.7,45.5,30.21,ENE,77,11.0,15.0,92,0.00,,---,0.00,VWS V14.01,2013-02-07 08:43:00,
2013-02-07 03:48:00,47.6,45.4,30.21,ENE,67,11.0,15.0,92,0.00,,---,0.00,VWS V14.01,2013-02-07 08:48:00,
2013-02-07 03:53:00,47.6,45.4,30.21,ENE,78,11.0,15.0,92,0.00,,---,0.00,VWS V14.01,2013-02-07 08:53:00,
2013-02-07 03:58:00,47.5,45.3,30.21,ENE,71,12.0,12.0,92,0.00,,---,0.00,VWS V14.01,2013-02-07 08:58:00,
2013-02-07 04:03:00,47.4,45.2,30.21,ENE,74,9.0,13.0,92,0.00,,---,0.00,VWS V14.01,2013-02-07 09:03:00,
2013-02-07 04:08:00,47.5,45.3,30.21,East,93,10.0,13.0,92,0.00,,---,0.00,VWS V14.01,2013-02-07 09:08:00,
2013-02-07 04:13:00,47.5,45.3,30.21,ENE,74,12.0,14.0,92,0.00,,---,0.00,VWS V14.01,2013-02-07 09:13:00,
2013-02-07 04:19:00,47.5,45.3,30.21,ENE,71,8.0,14.0,92,0.00,,---,0.00,VWS V14.01,2013-02-07 09:19:00,
2013-02-07 04:24:00,47.5,45.3,30.22,East,84,11.0,15.0,92,0.00,,---,0.00,VWS V14.01,2013-02-07 09:24:00,
2013-02-07 04:28:00,47.6,45.4,30.22,East,88,11.0,13.0,92,0.00,,---,0.00,VWS V14.01,2013-02-07 09:28:00,
2013-02-07 04:33:00,47.6,45.4,30.21,ENE,71,12.0,14.0,92,0.00,,---,0.00,VWS V14.01,2013-02-07 09:33:00,
2013-02-07 04:38:00,47.7,45.5,30.21,ENE,69,10.0,16.0,92,0.00,,---,0.00,VWS V14.01,2013-02-07 09:38:00,
2013-02-07 04:44:00,47.7,45.5,30.22,East,88,12.0,17.0,92,0.00,,---,0.00,VWS V14.01,2013-02-07 09:44:00,
2013-02-07 04:49:00,47.7,45.5,30.22,East,93,12.0,17.0,92,0.00,,---,0.00,VWS V14.01,2013-02-07 09:49:00,
2013-02-07 04:54:00,47.7,45.5,30.22,East,79,11.0,17.0,92,0.00,,---,0.00,VWS V14.01,2013-02-07 09:54:00,
2013-02-07 04:59:00,47.8,45.3,30.22,ENE,75,12.0,16.0,91,0.00,,---,0.00,VWS V14.01,2013-02-07 09:59:00,
2013-02-07 05:04:00,47.8,45.3,30.22,East,88,12.0,16.0,91,0.00,,---,0.00,VWS V14.01,2013-02-07 10:04:00,
2013-02-07 05:09:00,47.8,45.3,30.22,East,81,15.0,18.0,91,0.00,,---,0.00,VWS V14.01,2013-02-07 10:09:00,
2013-02-07 05:14:00,47.9,45.4,30.22,East,96,10.0,18.0,91,0.00,,---,0.00,VWS V14.01,2013-02-07 10:14:00,
2013-02-07 05:19:00,47.8,45.3,30.22,ENE,73,15.0,18.0,91,0.00,,---,0.00,VWS V14.01,2013-02-07 10:19:00,
2013-02-07 05:24:00,47.8,45.3,30.22,ENE,61,11.0,18.0,91,0.00,,---,0.00,VWS V14.01,2013-02-07 10:24:00,
2013-02-07 05:29:00,47.8,45.3,30.23,East,80,11.0,14.0,91,0.00,,---,0.00,VWS V14.01,2013-02-07 10:29:00,
2013-02-07 05:34:00,47.8,45.3,30.23,ENE,76,16.0,18.0,91,0.00,,---,0.00,VWS V14.01,2013-02-07 10:34:00,
2013-02-07 05:39:00,47.9,45.4,30.23,East,86,12.0,22.0,91,0.00,,---,0.00,VWS V14.01,2013-02-07 10:39:00,
2013-02-07 05:44:00,47.9,45.1,30.22,ENE,69,13.0,22.0,90,0.00,,---,0.00,VWS V14.01,2013-02-07 10:44:00,
2013-02-07 05:49:00,48.0,45.2,30.22,East,89,11.0,22.0,90,0.00,,---,0.00,VWS V14.01,2013-02-07 10:49:00,
2013-02-07 05:55:00,48.0,45.2,30.22,East,83,15.0,22.0,90,0.00,,---,0.00,VWS V14.01,2013-02-07 10:55:00,
2013-02-07 06:00:00,48.0,45.2,30.22,ENE,77,11.0,17.0,90,0.00,,---,0.00,VWS V14.01,2013-02-07 11:00:00,
2013-02-07 06:05:00,47.9,45.1,30.22,East,80,15.0,19.0,90,0.00,,---,0.00,VWS V14.01,2013-02-07 11:05:00,
2013-02-07 06:10:00,47.9,45.1,30.23,East,80,11.0,19.0,90,0.00,,---,0.00,VWS V14.01,2013-02-07 11:10:00,
2013-02-07 06:15:00,47.9,45.1,30.23,ENE,78,14.0,19.0,90,0.00,,---,0.00,VWS V14.01,2013-02-07 11:15:00,
2013-02-07 06:20:00,47.8,45.0,30.23,ENE,76,13.0,19.0,90,0.00,,---,0.00,VWS V14.01,2013-02-07 11:20:00,
2013-02-07 06:25:00,47.8,45.0,30.23,East,86,16.0,19.0,90,0.00,,---,0.00,VWS V14.01,2013-02-07 11:25:00,
2013-02-07 06:30:00,47.8,45.0,30.23,East,84,11.0,16.0,90,0.00,,---,0.00,VWS V14.01,2013-02-07 11:30:00,
2013-02-07 06:35:00,47.8,45.0,30.23,ENE,78,11.0,16.0,90,0.00,,---,0.00,VWS V14.01,2013-02-07 11:35:00,
2013-02-07 06:40:00,47.8,45.0,30.23,ENE,73,9.0,16.0,90,0.00,,---,0.00,VWS V14.01,2013-02-07 11:40:00,
2013-02-07 06:45:00,47.8,45.0,30.23,ENE,76,10.0,16.0,90,0.00,,---,0.00,VWS V14.01,2013-02-07 11:45:00,
2013-02-07 06:50:00,47.8,45.0,30.23,ENE,68,9.0,17.0,90,0.00,,---,0.00,VWS V14.01,2013-02-07 11:50:00,
2013-02-07 06:55:00,47.9,45.1,30.23,East,83,16.0,17.0,90,0.00,,---,0.00,VWS V14.01,2013-02-07 11:55:00,
2013-02-07 07:00:00,48.1,45.3,30.23,ENE,76,8.0,19.0,90,0.00,,---,0.00,VWS V14.01,2013-02-07 12:00:00,
2013-02-07 07:05:00,48.2,45.4,30.23,East,89,12.0,19.0,90,0.00,,---,0.00,VWS V14.01,2013-02-07 12:05:00,
2013-02-07 07:11:00,48.2,45.1,30.23,East,84,12.0,19.0,89,0.00,,---,0.00,VWS V14.01,2013-02-07 12:11:00,
2013-02-07 07:16:00,48.2,45.4,30.23,ENE,74,16.0,19.0,90,0.00,,---,0.00,VWS V14.01,2013-02-07 12:16:00,
2013-02-07 07:21:00,48.2,45.1,30.23,East,92,11.0,20.0,89,0.00,,---,0.00,VWS V14.01,2013-02-07 12:21:00,
2013-02-07 07:26:00,48.2,45.1,30.23,ENE,61,9.0,20.0,89,0.00,,---,0.00,VWS V14.01,2013-02-07 12:26:00,
2013-02-07 07:31:00,48.2,45.1,30.23,ENE,76,7.0,17.0,89,0.00,,---,0.00,VWS V14.01,2013-02-07 12:31:00,
2013-02-07 07:36:00,48.3,45.2,30.23,East,100,9.0,17.0,89,0.00,,---,0.00,VWS V14.01,2013-02-07 12:36:00,
2013-02-07 07:41:00,48.5,45.4,30.23,East,94,16.0,17.0,89,0.00,,---,0.00,VWS V14.01,2013-02-07 12:41:00,
2013-02-07 07:46:00,48.6,45.5,30.23,ENE,57,12.0,19.0,89,0.00,,---,0.00,VWS V14.01,2013-02-07 12:46:00,
2013-02-07 07:51:00,48.8,45.7,30.24,East,88,15.0,19.0,89,0.00,,---,0.00,VWS V14.01,2013-02-07 12:51:00,
2013-02-07 07:56:00,48.9,45.5,30.23,East,80,13.0,19.0,88,0.00,,---,0.00,VWS V14.01,2013-02-07 12:56:00,
2013-02-07 08:01:00,49.1,46.0,30.23,East,91,14.0,17.0,89,0.00,,---,0.00,VWS V14.01,2013-02-07 13:01:00,
2013-02-07 08:06:00,49.2,45.8,30.23,East,80,10.0,17.0,88,0.00,,---,0.00,VWS V14.01,2013-02-07 13:06:00,
2013-02-07 08:11:00,49.4,46.0,30.23,East,84,13.0,18.0,88,0.00,,---,0.00,VWS V14.01,2013-02-07 13:11:00,
2013-02-07 08:16:00,49.5,46.1,30.23,ENE,74,14.0,22.0,88,0.00,,---,0.00,VWS V14.01,2013-02-07 13:16:00,
2013-02-07 08:21:00,49.7,46.3,30.23,ENE,75,10.0,22.0,88,0.00,,---,0.00,VWS V14.01,2013-02-07 13:21:00,
2013-02-07 08:26:00,49.9,46.5,30.23,East,81,14.0,22.0,88,0.00,,---,0.00,VWS V14.01,2013-02-07 13:26:00,
2013-02-07 08:32:00,50.1,46.7,30.23,ESE,111,15.0,19.0,88,0.00,,---,0.00,VWS V14.01,2013-02-07 13:32:00,
2013-02-07 08:37:00,50.3,46.6,30.23,East,97,11.0,19.0,87,0.00,,---,0.00,VWS V14.01,2013-02-07 13:37:00,
2013-02-07 08:42:00,50.6,46.9,30.23,ESE,106,20.0,20.0,87,0.00,,---,0.00,VWS V14.01,2013-02-07 13:42:00,
2013-02-07 08:47:00,50.7,47.0,30.22,ENE,76,14.0,20.0,87,0.00,,---,0.00,VWS V14.01,2013-02-07 13:47:00,
2013-02-07 08:52:00,51.0,47.3,30.23,East,83,11.0,20.0,87,0.00,,---,0.00,VWS V14.01,2013-02-07 13:52:00,
2013-02-07 08:57:00,51.3,47.6,30.23,East,82,17.0,20.0,87,0.00,,---,0.00,VWS V14.01,2013-02-07 13:57:00,
2013-02-07 09:02:00,51.7,47.7,30.23,East,92,16.0,22.0,86,0.00,,---,0.00,VWS V14.01,2013-02-07 14:02:00,
2013-02-07 09:07:00,52.0,48.0,30.23,East,84,17.0,22.0,86,0.00,,---,0.00,VWS V14.01,2013-02-07 14:07:00,
2013-02-07 09:12:00,52.4,48.3,30.23,ENE,71,10.0,22.0,86,0.00,,---,0.00,VWS V14.01,2013-02-07 14:12:00,
2013-02-07 09:17:00,52.7,48.3,30.24,East,95,10.0,22.0,85,0.00,,---,0.00,VWS V14.01,2013-02-07 14:17:00,
2013-02-07 09:22:00,53.1,48.7,30.24,East,99,12.0,22.0,85,0.00,,---,0.00,VWS V14.01,2013-02-07 14:22:00,
2013-02-07 09:27:00,53.4,49.0,30.24,East,84,18.0,22.0,85,0.00,,---,0.00,VWS V14.01,2013-02-07 14:27:00,
2013-02-07 09:32:00,53.6,48.9,30.24,East,80,10.0,20.0,84,0.00,,---,0.00,VWS V14.01,2013-02-07 14:32:00,
2013-02-07 09:37:00,53.9,49.2,30.24,NE,48,12.0,20.0,84,0.00,,---,0.00,VWS V14.01,2013-02-07 14:37:00,
2013-02-07 09:43:00,53.7,49.0,30.24,East,92,20.0,20.0,84,0.00,,---,0.00,VWS V14.01,2013-02-07 14:43:00,
2013-02-07 09:48:00,53.8,49.1,30.24,East,80,11.0,20.0,84,0.00,,---,0.00,VWS V14.01,2013-02-07 14:48:00,
2013-02-07 09:53:00,53.7,49.0,30.25,East,80,11.0,20.0,84,0.00,,---,0.00,VWS V14.01,2013-02-07 14:53:00,
2013-02-07 09:58:00,53.8,49.1,30.24,ENE,74,14.0,15.0,84,0.00,,---,0.00,VWS V14.01,2013-02-07 14:58:00,
2013-02-07 10:03:00,54.1,49.4,30.24,ENE,77,16.0,16.0,84,0.00,,---,0.00,VWS V14.01,2013-02-07 15:03:00,
2013-02-07 10:08:00,54.2,49.2,30.24,NE,40,13.0,16.0,83,0.00,,---,0.00,VWS V14.01,2013-02-07 15:08:00,
2013-02-07 10:13:00,54.1,49.1,30.24,ENE,63,11.0,18.0,83,0.00,,---,0.00,VWS V14.01,2013-02-07 15:13:00,
2013-02-07 10:18:00,54.4,49.3,30.24,ENE,61,7.0,18.0,83,0.00,,---,0.00,VWS V14.01,2013-02-07 15:18:00,
2013-02-07 10:23:00,54.4,49.3,30.24,East,86,13.0,18.0,83,0.00,,---,0.00,VWS V14.01,2013-02-07 15:23:00,
2013-02-07 10:28:00,54.6,49.2,30.23,ENE,67,12.0,13.0,82,0.00,,---,0.00,VWS V14.01,2013-02-07 15:28:00,
2013-02-07 10:33:00,54.7,49.3,30.23,ENE,67,13.0,16.0,82,0.00,,---,0.00,VWS V14.01,2013-02-07 15:33:00,
2013-02-07 10:38:00,54.9,49.5,30.22,NE,43,11.0,19.0,82,0.00,,---,0.00,VWS V14.01,2013-02-07 15:38:00,
2013-02-07 10:43:00,55.6,50.2,30.23,East,91,9.0,21.0,82,0.00,,---,0.00,VWS V14.01,2013-02-07 15:43:00,
2013-02-07 10:48:00,56.3,50.2,30.22,East,81,14.0,21.0,80,0.00,,---,0.00,VWS V14.01,2013-02-07 15:48:00,
2013-02-07 10:53:00,56.4,50.3,30.22,East,99,13.0,22.0,80,0.00,,---,0.00,VWS V14.01,2013-02-07 15:53:00,
2013-02-07 10:58:00,56.5,50.4,30.22,East,87,20.0,22.0,80,0.00,,---,0.00,VWS V14.01,2013-02-07 15:58:00,
2013-02-07 11:03:00,56.7,50.3,30.22,ENE,76,15.0,24.0,79,0.00,,---,0.00,VWS V14.01,2013-02-07 16:03:00,
2013-02-07 11:08:00,56.7,50.3,30.21,ESE,111,15.0,24.0,79,0.00,,---,0.00,VWS V14.01,2013-02-07 16:08:00,
2013-02-07 11:13:00,56.7,50.6,30.21,East,89,15.0,24.0,80,0.00,,---,0.00,VWS V14.01,2013-02-07 16:13:00,
2013-02-07 11:18:00,56.8,50.7,30.21,ESE,109,16.0,24.0,80,0.00,,---,0.00,VWS V14.01,2013-02-07 16:18:00,
2013-02-07 11:24:00,56.9,50.8,30.21,East,84,20.0,24.0,80,0.00,,---,0.00,VWS V14.01,2013-02-07 16:24:00,
2013-02-07 11:29:00,57.1,50.7,30.20,East,88,16.0,18.0,79,0.00,,---,0.00,VWS V14.01,2013-02-07 16:29:00,
2013-02-07 11:34:00,57.2,51.1,30.20,East,98,18.0,24.0,80,0.00,,---,0.00,VWS V14.01,2013-02-07 16:34:00,
2013-02-07 11:39:00,57.4,51.0,30.20,ESE,117,7.0,25.0,79,0.00,,---,0.00,VWS V14.01,2013-02-07 16:39:00,
2013-02-07 11:44:00,57.4,51.0,30.19,East,95,16.0,25.0,79,0.00,,---,0.00,VWS V14.01,2013-02-07 16:44:00,
2013-02-07 11:49:00,57.3,50.8,30.19,ESE,106,21.0,25.0,79,0.00,,---,0.00,VWS V14.01,2013-02-07 16:49:00,
2013-02-07 11:54:00,57.4,51.0,30.19,ENE,78,13.0,25.0,79,0.00,,---,0.00,VWS V14.01,2013-02-07 16:54:00,
2013-02-07 11:59:00,57.0,50.6,30.18,East,88,14.0,21.0,79,0.00,,---,0.00,VWS V14.01,2013-02-07 16:59:00,
2013-02-07 12:04:00,57.0,50.9,30.17,East,92,21.0,24.0,80,0.00,,---,0.00,VWS V14.01,2013-02-07 17:04:00,
2013-02-07 12:09:00,57.1,51.0,30.17,ESE,103,23.0,26.0,80,0.00,,---,0.00,VWS V14.01,2013-02-07 17:09:00,
2013-02-07 12:14:00,57.0,50.9,30.17,East,90,15.0,26.0,80,0.00,,---,0.00,VWS V14.01,2013-02-07 17:14:00,
2013-02-07 12:19:00,56.8,50.7,30.16,ESE,104,24.0,26.0,80,0.00,,---,0.00,VWS V14.01,2013-02-07 17:19:00,
2013-02-07 12:24:00,56.7,50.6,30.17,East,92,12.0,26.0,80,0.00,,---,0.00,VWS V14.01,2013-02-07 17:24:00,
2013-02-07 12:29:00,56.5,50.4,30.17,East,86,15.0,17.0,80,0.00,,---,0.00,VWS V14.01,2013-02-07 17:29:00,
2013-02-07 12:34:00,56.3,50.5,30.17,ENE,67,12.0,22.0,81,0.00,,---,0.00,VWS V14.01,2013-02-07 17:34:00,
2013-02-07 12:39:00,56.2,50.5,30.16,East,92,15.0,22.0,81,0.00,,---,0.00,VWS V14.01,2013-02-07 17:39:00,
2013-02-07 12:44:00,56.2,50.5,30.16,East,93,20.0,22.0,81,0.00,,---,0.00,VWS V14.01,2013-02-07 17:44:00,
2013-02-07 12:49:00,56.3,50.5,30.15,East,98,15.0,22.0,81,0.00,,---,0.00,VWS V14.01,2013-02-07 17:49:00,
2013-02-07 12:54:00,56.5,50.8,30.15,East,85,18.0,25.0,81,0.00,,---,0.00,VWS V14.01,2013-02-07 17:54:00,
2013-02-07 12:59:00,56.6,50.8,30.15,ENE,67,19.0,25.0,81,0.00,,---,0.00,VWS V14.01,2013-02-07 17:59:00,
2013-02-07 13:04:00,56.9,51.1,30.14,ENE,62,11.0,25.0,81,0.00,,---,0.00,VWS V14.01,2013-02-07 18:04:00,
2013-02-07 13:09:00,57.2,51.1,30.14,East,79,18.0,25.0,80,0.00,,---,0.00,VWS V14.01,2013-02-07 18:09:00,
2013-02-07 13:14:00,57.1,51.0,30.14,East,80,14.0,25.0,80,0.00,,---,0.00,VWS V14.01,2013-02-07 18:14:00,
2013-02-07 13:19:00,57.1,51.0,30.14,East,98,17.0,25.0,80,0.00,,---,0.00,VWS V14.01,2013-02-07 18:19:00,
2013-02-07 13:25:00,57.3,51.2,30.14,ENE,76,18.0,25.0,80,0.00,,---,0.00,VWS V14.01,2013-02-07 18:25:00,
2013-02-07 13:30:00,57.6,51.5,30.14,East,90,15.0,22.0,80,0.00,,---,0.00,VWS V14.01,2013-02-07 18:30:00,
2013-02-07 13:35:00,57.7,51.6,30.14,East,95,14.0,24.0,80,0.00,,---,0.00,VWS V14.01,2013-02-07 18:35:00,
2013-02-07 13:40:00,57.7,51.9,30.13,East,86,20.0,24.0,81,0.00,,---,0.00,VWS V14.01,2013-02-07 18:40:00,
2013-02-07 13:45:00,57.8,52.3,30.13,East,87,11.0,25.0,82,0.00,,---,0.00,VWS V14.01,2013-02-07 18:45:00,
2013-02-07 13:50:00,58.2,52.4,30.12,East,87,14.0,25.0,81,0.00,,---,0.00,VWS V14.01,2013-02-07 18:50:00,
2013-02-07 13:55:00,58.7,52.9,30.12,East,90,11.0,27.0,81,0.00,,---,0.00,VWS V14.01,2013-02-07 18:55:00,
2013-02-07 14:00:00,58.7,52.9,30.12,East,86,10.0,16.0,81,0.00,,---,0.00,VWS V14.01,2013-02-07 19:00:00,
2013-02-07 14:05:00,58.6,53.1,30.12,East,87,11.0,21.0,82,0.00,,---,0.00,VWS V14.01,2013-02-07 19:05:00,
2013-02-07 14:10:00,58.2,53.1,30.12,East,88,13.0,21.0,83,0.01,,---,0.01,VWS V14.01,2013-02-07 19:10:00,
2013-02-07 14:15:00,57.9,53.1,30.12,ESE,105,15.0,21.0,84,0.02,,---,0.02,VWS V14.01,2013-02-07 19:15:00,
2013-02-07 14:20:00,57.6,53.5,30.12,ESE,113,9.0,21.0,86,0.03,,---,0.03,VWS V14.01,2013-02-07 19:20:00,
2013-02-07 14:25:00,57.1,53.0,30.12,ENE,71,11.0,21.0,86,0.06,,---,0.06,VWS V14.01,2013-02-07 19:25:00,
2013-02-07 14:30:00,56.6,52.8,30.12,East,92,16.0,17.0,87,0.08,,---,0.08,VWS V14.01,2013-02-07 19:30:00,
2013-02-07 14:35:00,56.3,53.1,30.12,East,88,14.0,23.0,89,0.10,,---,0.10,VWS V14.01,2013-02-07 19:35:00,
2013-02-07 14:40:00,56.0,52.8,30.11,NE,54,14.0,23.0,89,0.12,,---,0.12,VWS V14.01,2013-02-07 19:40:00,
2013-02-07 14:45:00,55.6,52.7,30.11,ENE,78,9.0,23.0,90,0.14,,---,0.14,VWS V14.01,2013-02-07 19:45:00,
2013-02-07 14:50:00,55.4,52.8,30.10,East,88,10.0,23.0,91,0.15,,---,0.15,VWS V14.01,2013-02-07 19:50:00,
2013-02-07 14:55:00,55.1,52.5,30.10,ENE,66,10.0,23.0,91,0.16,,---,0.16,VWS V14.01,2013-02-07 19:55:00,
2013-02-07 15:00:00,54.8,52.5,30.09,ENE,66,12.0,17.0,92,0.18,,---,0.18,VWS V14.01,2013-02-07 20:00:00,
2013-02-07 15:05:00,54.6,52.3,30.09,ENE,62,9.0,18.0,92,0.19,,---,0.19,VWS V14.01,2013-02-07 20:05:00,
2013-02-07 15:10:00,54.5,52.5,30.09,ENE,75,10.0,18.0,93,0.20,,---,0.20,VWS V14.01,2013-02-07 20:10:00,
2013-02-07 15:15:00,54.4,52.4,30.09,East,86,17.0,19.0,93,0.20,,---,0.20,VWS V14.01,2013-02-07 20:15:00,
2013-02-07 15:20:00,54.3,52.3,30.08,ENE,72,18.0,20.0,93,0.21,,---,0.21,VWS V14.01,2013-02-07 20:20:00,
2013-02-07 15:25:00,54.3,52.3,30.08,East,83,16.0,24.0,93,0.22,,---,0.22,VWS V14.01,2013-02-07 20:25:00,
2013-02-07 15:30:00,54.1,52.1,30.08,East,88,13.0,21.0,93,0.16,,---,0.22,VWS V14.01,2013-02-07 20:30:00,
2013-02-07 15:35:00,54.1,52.1,30.08,ENE,73,12.0,22.0,93,0.17,,---,0.23,VWS V14.01,2013-02-07 20:35:00,
2013-02-07 15:40:00,54.1,52.1,30.08,NE,54,10.0,23.0,93,0.17,,---,0.23,VWS V14.01,2013-02-07 20:40:00,
2013-02-07 15:45:00,54.0,52.0,30.08,East,99,13.0,24.0,93,0.17,,---,0.23,VWS V14.01,2013-02-07 20:45:00,
2013-02-07 15:51:00,54.0,52.0,30.08,NE,55,15.0,24.0,93,0.17,,---,0.23,VWS V14.01,2013-02-07 20:51:00,
2013-02-07 15:56:00,54.0,52.0,30.08,ENE,74,23.0,24.0,93,0.18,,---,0.24,VWS V14.01,2013-02-07 20:56:00,
2013-02-07 16:01:00,54.0,52.0,30.08,East,94,20.0,24.0,93,0.08,,---,0.25,VWS V14.01,2013-02-07 21:01:00,
2013-02-07 16:06:00,54.0,52.0,30.08,East,80,14.0,24.0,93,0.09,,---,0.26,VWS V14.01,2013-02-07 21:06:00,
2013-02-07 16:11:00,54.0,52.3,30.07,East,94,12.0,24.0,94,0.11,,---,0.28,VWS V14.01,2013-02-07 21:11:00,
2013-02-07 16:16:00,53.9,52.2,30.07,East,87,22.0,24.0,94,0.13,,---,0.30,VWS V14.01,2013-02-07 21:16:00,
2013-02-07 16:21:00,53.9,52.2,30.07,ESE,103,15.0,24.0,94,0.15,,---,0.32,VWS V14.01,2013-02-07 21:21:00,
2013-02-07 16:26:00,53.8,52.1,30.07,East,101,21.0,26.0,94,0.17,,---,0.34,VWS V14.01,2013-02-07 21:26:00,
2013-02-07 16:31:00,53.9,52.2,30.07,East,98,18.0,23.0,94,0.13,,---,0.35,VWS V14.01,2013-02-07 21:31:00,
2013-02-07 16:36:00,53.9,52.2,30.07,ENE,68,21.0,25.0,94,0.15,,---,0.37,VWS V14.01,2013-02-07 21:36:00,
2013-02-07 16:41:00,53.9,52.5,30.07,ENE,65,12.0,26.0,95,0.17,,---,0.39,VWS V14.01,2013-02-07 21:41:00,
2013-02-07 16:46:00,53.8,52.4,30.06,East,81,19.0,26.0,95,0.18,,---,0.40,VWS V14.01,2013-02-07 21:46:00,
2013-02-07 16:51:00,53.8,52.4,30.06,East,79,18.0,26.0,95,0.20,,---,0.42,VWS V14.01,2013-02-07 21:51:00,
2013-02-07 16:57:00,54.0,52.6,30.06,East,96,22.0,26.0,95,0.23,,---,0.45,VWS V14.01,2013-02-07 21:57:00,
2013-02-07 17:02:00,54.1,52.7,30.06,ENE,58,16.0,25.0,95,0.24,,---,0.48,VWS V14.01,2013-02-07 22:02:00,
2013-02-07 17:07:00,53.9,52.5,30.05,ENE,61,23.0,25.0,95,0.26,,---,0.50,VWS V14.01,2013-02-07 22:07:00,
2013-02-07 17:12:00,53.9,52.5,30.05,East,88,13.0,25.0,95,0.28,,---,0.52,VWS V14.01,2013-02-07 22:12:00,
2013-02-07 17:17:00,53.9,52.5,30.05,ENE,76,13.0,30.0,95,0.30,,---,0.54,VWS V14.01,2013-02-07 22:17:00,
2013-02-07 17:22:00,54.0,52.9,30.05,East,84,22.0,30.0,96,0.31,,---,0.55,VWS V14.01,2013-02-07 22:22:00,
2013-02-07 17:27:00,54.1,53.0,30.05,East,79,18.0,30.0,96,0.33,,---,0.57,VWS V14.01,2013-02-07 22:27:00,
2013-02-07 17:32:00,53.9,52.5,30.05,East,81,17.0,26.0,95,0.25,,---,0.59,VWS V14.01,2013-02-07 22:32:00,
2013-02-07 17:37:00,54.0,52.9,30.05,East,88,24.0,26.0,96,0.27,,---,0.61,VWS V14.01,2013-02-07 22:37:00,
2013-02-07 17:42:00,53.9,52.5,30.05,ENE,75,20.0,26.0,95,0.27,,---,0.61,VWS V14.01,2013-02-07 22:42:00,
2013-02-07 17:47:00,53.8,52.4,30.05,East,94,15.0,28.0,95,0.30,,---,0.64,VWS V14.01,2013-02-07 22:47:00,
2013-02-07 17:52:00,53.7,52.3,30.05,East,88,18.0,28.0,95,0.31,,---,0.65,VWS V14.01,2013-02-07 22:52:00,
2013-02-07 17:57:00,53.7,52.6,30.05,ENE,72,18.0,28.0,96,0.33,,---,0.67,VWS V14.01,2013-02-07 22:57:00,
2013-02-07 18:02:00,53.7,52.6,30.04,NE,55,15.0,28.0,96,0.23,,---,0.69,VWS V14.01,2013-02-07 23:02:00,
2013-02-07 18:07:00,53.7,52.6,30.04,East,81,22.0,28.0,96,0.24,,---,0.70,VWS V14.01,2013-02-07 23:07:00,
2013-02-07 18:12:00,53.7,52.6,30.05,ENE,74,20.0,28.0,96,0.25,,---,0.71,VWS V14.01,2013-02-07 23:12:00,
2013-02-07 18:17:00,53.7,52.6,30.04,ENE,64,21.0,28.0,96,0.27,,---,0.73,VWS V14.01,2013-02-07 23:17:00,
2013-02-07 18:23:00,53.7,52.6,30.04,ENE,60,17.0,28.0,96,0.28,,---,0.74,VWS V14.01,2013-02-07 23:23:00,
2013-02-07 18:28:00,53.8,52.7,30.04,East,80,20.0,28.0,96,0.31,,---,0.77,VWS V14.01,2013-02-07 23:28:00,
2013-02-07 18:33:00,53.7,52.6,30.04,East,90,24.0,27.0,96,0.24,,---,0.81,VWS V14.01,2013-02-07 23:33:00,
2013-02-07 18:38:00,53.7,52.6,30.03,East,86,24.0,27.0,96,0.29,,---,0.86,VWS V14.01,2013-02-07 23:38:00,
2013-02-07 18:43:00,53.7,52.6,30.02,ENE,76,17.0,29.0,96,0.33,,---,0.90,VWS V14.01,2013-02-07 23:43:00,
2013-02-07 18:48:00,53.7,52.6,30.02,ENE,78,13.0,30.0,96,0.38,,---,0.95,VWS V14.01,2013-02-07 23:48:00,
2013-02-07 18:53:00,53.7,52.6,30.02,ENE,74,16.0,30.0,96,0.45,,---,1.02,VWS V14.01,2013-02-07 23:53:00,
2013-02-07 18:58:00,53.6,52.5,30.02,ENE,67,19.0,30.0,96,0.52,,---,1.09,VWS V14.01,2013-02-07 23:58:00,
2013-02-07 19:03:00,53.5,52.4,30.02,ENE,62,17.0,25.0,96,0.46,,---,1.13,VWS V14.01,2013-02-08 00:03:00,
2013-02-07 19:08:00,53.5,52.4,30.02,NE,53,21.0,25.0,96,0.51,,---,1.18,VWS V14.01,2013-02-08 00:08:00,
2013-02-07 19:13:00,53.4,52.3,30.02,ENE,65,13.0,25.0,96,0.55,,---,1.22,VWS V14.01,2013-02-08 00:13:00,
2013-02-07 19:18:00,53.4,52.3,30.02,NE,35,17.0,25.0,96,0.58,,---,1.25,VWS V14.01,2013-02-08 00:18:00,
2013-02-07 19:23:00,53.4,52.3,30.01,NE,47,18.0,25.0,96,0.63,,---,1.30,VWS V14.01,2013-02-08 00:23:00,
2013-02-07 19:28:00,53.3,51.9,30.01,ENE,62,19.0,19.0,95,0.58,,---,1.35,VWS V14.01,2013-02-08 00:28:00,
2013-02-07 19:33:00,53.2,51.8,30.01,ENE,57,12.0,20.0,95,0.64,,---,1.41,VWS V14.01,2013-02-08 00:33:00,
2013-02-07 19:38:00,53.2,51.8,30.01,NE,46,21.0,24.0,95,0.72,,---,1.49,VWS V14.01,2013-02-08 00:38:00,
2013-02-07 19:43:00,53.1,51.7,30.01,ENE,62,13.0,24.0,95,0.76,,---,1.53,VWS V14.01,2013-02-08 00:43:00,
2013-02-07 19:48:00,53.1,52.0,30.01,ENE,72,15.0,24.0,96,0.81,,---,1.58,VWS V14.01,2013-02-08 00:48:00,
2013-02-07 19:53:00,53.1,52.0,30.00,ENE,77,22.0,25.0,96,0.85,,---,1.62,VWS V14.01,2013-02-08 00:53:00,
2013-02-07 19:58:00,53.2,52.1,30.00,NE,48,17.0,21.0,96,0.55,,---,1.64,VWS V14.01,2013-02-08 00:58:00,
2013-02-07 20:03:00,53.3,52.2,29.98,NE,38,22.0,30.0,96,0.58,,---,1.67,VWS V14.01,2013-02-08 01:03:00,
2013-02-07 20:08:00,53.6,52.5,29.98,East,84,23.0,30.0,96,0.59,,---,1.68,VWS V14.01,2013-02-08 01:08:00,
2013-02-07 20:13:00,53.6,52.5,29.98,East,86,19.0,30.0,96,0.60,,---,1.69,VWS V14.01,2013-02-08 01:13:00,
2013-02-07 20:18:00,53.6,52.5,29.99,East,89,9.0,30.0,96,0.64,,---,1.73,VWS V14.01,2013-02-08 01:18:00,
2013-02-07 20:23:00,53.7,52.6,29.98,East,92,30.0,30.0,96,0.67,,---,1.76,VWS V14.01,2013-02-08 01:23:00,
2013-02-07 20:28:00,53.9,52.8,29.98,NE,56,16.0,27.0,96,0.45,,---,1.79,VWS V14.01,2013-02-08 01:28:00,
2013-02-07 20:34:00,53.9,52.8,29.97,East,88,18.0,34.0,96,0.46,,---,1.80,VWS V14.01,2013-02-08 01:34:00,
2013-02-07 20:39:00,53.8,52.4,29.97,East,91,21.0,34.0,95,0.47,,---,1.81,VWS V14.01,2013-02-08 01:39:00,
2013-02-07 20:44:00,53.8,52.7,29.97,ENE,71,15.0,34.0,96,0.47,,---,1.81,VWS V14.01,2013-02-08 01:44:00,
2013-02-07 20:49:00,53.8,52.7,29.97,ENE,71,22.0,34.0,96,0.48,,---,1.82,VWS V14.01,2013-02-08 01:49:00,
2013-02-07 20:54:00,53.8,52.4,29.97,ENE,66,15.0,34.0,95,0.48,,---,1.82,VWS V14.01,2013-02-08 01:54:00,
2013-02-07 20:59:00,53.9,52.5,29.96,NE,43,22.0,25.0,95,0.19,,---,1.83,VWS V14.01,2013-02-08 01:59:00,
2013-02-07 21:04:00,53.8,52.4,29.97,ENE,60,20.0,25.0,95,0.21,,---,1.85,VWS V14.01,2013-02-08 02:04:00,
2013-02-07 21:09:00,53.7,52.3,29.96,NE,53,13.0,25.0,95,0.24,,---,1.88,VWS V14.01,2013-02-08 02:09:00,
2013-02-07 21:14:00,53.7,52.6,29.96,NE,55,23.0,27.0,96,0.25,,---,1.89,VWS V14.01,2013-02-08 02:14:00,
2013-02-07 21:19:00,53.8,52.7,29.95,ENE,58,26.0,27.0,96,0.26,,---,1.90,VWS V14.01,2013-02-08 02:19:00,
2013-02-07 21:24:00,53.9,52.8,29.95,East,90,13.0,27.0,96,0.27,,---,1.91,VWS V14.01,2013-02-08 02:24:00,
2013-02-07 21:29:00,54.0,52.9,29.94,East,88,15.0,29.0,96,0.14,,---,1.92,VWS V14.01,2013-02-08 02:29:00,
2013-02-07 21:35:00,54.0,52.9,29.95,ESE,103,2.0,31.0,96,0.16,,---,1.94,VWS V14.01,2013-02-08 02:35:00,
2013-02-07 21:40:00,53.9,52.8,29.93,East,91,13.0,31.0,96,0.17,,---,1.95,VWS V14.01,2013-02-08 02:40:00,
2013-02-07 21:45:00,54.1,53.0,29.93,East,84,15.0,31.0,96,0.18,,---,1.96,VWS V14.01,2013-02-08 02:45:00,
2013-02-07 21:50:00,54.1,53.0,29.93,ENE,65,15.0,31.0,96,0.19,,---,1.97,VWS V14.01,2013-02-08 02:50:00,
2013-02-07 21:55:00,54.1,53.0,29.92,East,88,21.0,31.0,96,0.19,,---,1.97,VWS V14.01,2013-02-08 02:55:00,
2013-02-07 22:00:00,54.3,53.2,29.92,ENE,78,24.0,24.0,96,0.15,,---,1.98,VWS V14.01,2013-02-08 03:00:00,
2013-02-07 22:05:00,54.3,53.2,29.91,East,86,21.0,31.0,96,0.15,,---,1.98,VWS V14.01,2013-02-08 03:05:00,
2013-02-07 22:10:00,54.4,53.3,29.91,ESE,109,19.0,32.0,96,0.16,,---,1.99,VWS V14.01,2013-02-08 03:10:00,
2013-02-07 22:15:00,54.5,53.4,29.91,East,91,14.0,32.0,96,0.16,,---,1.99,VWS V14.01,2013-02-08 03:15:00,
2013-02-07 22:20:00,54.5,53.4,29.90,ENE,75,22.0,32.0,96,0.17,,---,2.00,VWS V14.01,2013-02-08 03:20:00,
2013-02-07 22:25:00,54.6,53.5,29.90,East,97,21.0,32.0,96,0.18,,---,2.01,VWS V14.01,2013-02-08 03:25:00,
2013-02-07 22:30:00,54.6,53.5,29.89,East,88,30.0,30.0,96,0.09,,---,2.01,VWS V14.01,2013-02-08 03:30:00,
2013-02-07 22:35:00,54.5,53.1,29.89,ENE,70,10.0,30.0,95,0.10,,---,2.02,VWS V14.01,2013-02-08 03:35:00,
2013-02-07 22:40:00,54.4,53.0,29.88,ENE,59,15.0,30.0,95,0.10,,---,2.02,VWS V14.01,2013-02-08 03:40:00,
2013-02-07 22:45:00,54.5,53.4,29.87,ENE,74,18.0,30.0,96,0.10,,---,2.02,VWS V14.01,2013-02-08 03:45:00,
2013-02-07 22:50:00,54.6,53.5,29.87,ENE,73,24.0,30.0,96,0.10,,---,2.02,VWS V14.01,2013-02-08 03:50:00,
2013-02-07 22:55:00,54.6,53.5,29.87,East,88,28.0,30.0,96,0.11,,---,2.03,VWS V14.01,2013-02-08 03:55:00,
2013-02-07 23:00:00,54.6,53.5,29.86,ENE,76,21.0,22.0,96,0.05,,---,2.03,VWS V14.01,2013-02-08 04:00:00,
2013-02-07 23:05:00,54.9,53.8,29.84,East,89,21.0,29.0,96,0.05,,---,2.03,VWS V14.01,2013-02-08 04:05:00,
2013-02-07 23:10:00,55.0,53.9,29.85,ENE,58,18.0,29.0,96,0.06,,---,2.04,VWS V14.01,2013-02-08 04:10:00,
2013-02-07 23:15:00,55.1,54.0,29.84,ENE,67,15.0,32.0,96,0.06,,---,2.04,VWS V14.01,2013-02-08 04:15:00,
2013-02-07 23:20:00,55.3,54.2,29.83,ENE,62,16.0,32.0,96,0.06,,---,2.04,VWS V14.01,2013-02-08 04:20:00,
2013-02-07 23:25:00,55.4,54.3,29.83,East,84,29.0,32.0,96,0.06,,---,2.04,VWS V14.01,2013-02-08 04:25:00,
2013-02-07 23:30:00,55.4,54.3,29.82,East,99,18.0,30.0,96,0.03,,---,2.04,VWS V14.01,2013-02-08 04:30:00,
2013-02-07 23:35:00,55.5,54.1,29.82,ENE,77,20.0,30.0,95,0.03,,---,2.04,VWS V14.01,2013-02-08 04:35:00,
2013-02-07 23:40:00,55.6,54.2,29.81,ENE,63,19.0,30.0,95,0.04,,---,2.05,VWS V14.01,2013-02-08 04:40:00,
2013-02-07 23:45:00,55.7,54.3,29.81,ENE,73,13.0,32.0,95,0.04,,---,2.05,VWS V14.01,2013-02-08 04:45:00,
2013-02-07 23:50:00,55.8,54.4,29.80,East,91,28.0,32.0,95,0.04,,---,2.05,VWS V14.01,2013-02-08 04:50:00,
2013-02-07 23:55:00,55.8,54.4,29.80,East,79,21.0,32.0,95,0.04,,---,2.05,VWS V14.01,2013-02-08 04:55:00,